Wetterdaten: Woche 01.05.17 - 07.05.17 (KW18)
Datum Zeit Temp. Aussen Temp. o. S. +5cm Feuchte Auss BlattFeu 1 Luftdruck Regen Sonnenschein Regendauer Solar Windben Empfang
01.05.2017 00:00 14,2 C 14,1 C 12,0 C 54 % 0 lf 1003,9 hPa 0,0 l/m 0,00 h 0,00 h 0 W/m 20,5 km/h (4 Bft) 96,67 %
01.05.2017 01:00 13,6 C 13,4 C 11,5 C 56 % 0 lf 1003,8 hPa 0,0 l/m 0,00 h 0,07 h 0 W/m 20,0 km/h (4 Bft) 96,65 %
01.05.2017 02:00 13,4 C 13,5 C 11,7 C 57 % 0 lf 1003,8 hPa 0,0 l/m 0,00 h 0,00 h 0 W/m 17,6 km/h (3 Bft) 96,37 %
01.05.2017 03:00 13,2 C 13,2 C 11,3 C 58 % 0 lf 1003,9 hPa 0,0 l/m 0,00 h 0,00 h 0 W/m 18,0 km/h (3 Bft) 95,44 %
01.05.2017 04:00 12,7 C 12,8 C 10,9 C 61 % 0 lf 1004,0 hPa 0,0 l/m 0,00 h 0,03 h 0 W/m 18,4 km/h (3 Bft) 97,52 %
01.05.2017 05:00 12,4 C 12,2 C 10,3 C 64 % 0 lf 1004,5 hPa 0,0 l/m 0,00 h 0,40 h 0 W/m 13,9 km/h (3 Bft) 96,65 %
01.05.2017 06:00 11,8 C 11,4 C 9,4 C 70 % 1 lf 1005,4 hPa 0,0 l/m 0,00 h 0,73 h 8 W/m 8,9 km/h (2 Bft) 94,27 %
01.05.2017 07:00 11,2 C 10,0 C 8,4 C 80 % 15 lf 1006,7 hPa 0,2 l/m 0,00 h 1,00 h 31 W/m 12,5 km/h (3 Bft) 97,72 %
01.05.2017 08:00 10,5 C 9,4 C 8,6 C 89 % 15 lf 1007,5 hPa 0,4 l/m 0,00 h 1,00 h 57 W/m 9,5 km/h (2 Bft) 96,73 %
01.05.2017 09:00 10,0 C 9,2 C 8,4 C 91 % 15 lf 1008,3 hPa 1,2 l/m 0,00 h 1,00 h 70 W/m 9,8 km/h (2 Bft) 96,30 %
01.05.2017 10:00 9,9 C 9,6 C 9,0 C 92 % 15 lf 1008,9 hPa 1,0 l/m 0,00 h 1,00 h 117 W/m 6,7 km/h (2 Bft) 94,24 %
01.05.2017 11:00 10,4 C 10,5 C 10,1 C 93 % 15 lf 1009,5 hPa 0,6 l/m 0,00 h 1,00 h 192 W/m 8,6 km/h (2 Bft) 97,29 %
01.05.2017 12:00 10,9 C 10,8 C 10,5 C 94 % 15 lf 1010,0 hPa 0,6 l/m 0,00 h 1,00 h 209 W/m 11,9 km/h (2 Bft) 96,93 %
01.05.2017 13:00 10,8 C 10,5 C 10,5 C 92 % 2 lf 1010,5 hPa 0,0 l/m 0,00 h 0,77 h 206 W/m 12,9 km/h (3 Bft) 96,86 %
01.05.2017 14:00 11,1 C 11,6 C 11,5 C 91 % 0 lf 1011,0 hPa 0,0 l/m 0,00 h 0,57 h 257 W/m 13,0 km/h (3 Bft) 94,81 %
01.05.2017 15:00 12,1 C 13,4 C 13,7 C 87 % 0 lf 1011,2 hPa 0,0 l/m 0,57 h 0,23 h 349 W/m 14,7 km/h (3 Bft) 97,86 %
01.05.2017 16:00 12,4 C 12,4 C 11,6 C 84 % 0 lf 1011,7 hPa 0,2 l/m 0,00 h 0,83 h 157 W/m 12,6 km/h (3 Bft) 96,58 %
01.05.2017 17:00 11,5 C 10,4 C 9,7 C 88 % 13 lf 1012,4 hPa 0,6 l/m 0,00 h 1,00 h 101 W/m 13,8 km/h (3 Bft) 96,52 %
01.05.2017 18:00 11,0 C 10,7 C 9,9 C 92 % 8 lf 1012,7 hPa 0,0 l/m 0,00 h 0,80 h 106 W/m 11,0 km/h (2 Bft) 94,37 %
01.05.2017 19:00 10,7 C 10,0 C 9,1 C 93 % 2 lf 1013,2 hPa 0,0 l/m 0,00 h 0,50 h 51 W/m 11,6 km/h (2 Bft) 96,23 %
01.05.2017 20:00 10,3 C 9,8 C 8,6 C 94 % 2 lf 1013,7 hPa 0,0 l/m 0,00 h 0,00 h 21 W/m 8,8 km/h (2 Bft) 97,79 %
01.05.2017 21:00 9,8 C 9,4 C 7,9 C 94 % 3 lf 1014,2 hPa 0,0 l/m 0,00 h 0,00 h 5 W/m 8,9 km/h (2 Bft) 97,01 %
01.05.2017 22:00 9,4 C 9,0 C 7,6 C 95 % 3 lf 1014,6 hPa 0,0 l/m 0,00 h 0,00 h 3 W/m 5,9 km/h (2 Bft) 94,24 %
01.05.2017 23:00 8,9 C 8,3 C 7,0 C 95 % 8 lf 1014,8 hPa 0,0 l/m 0,00 h 0,00 h 0 W/m 3,4 km/h (1 Bft) 97,16 %
02.05.2017 00:00 8,4 C 7,5 C 5,9 C 95 % 14 lf 1015,0 hPa 0,2 l/m 0,00 h 0,00 h 5 W/m 0,7 km/h (0 Bft) 96,67 %
02.05.2017 01:00 7,7 C 6,7 C 5,2 C 95 % 15 lf 1015,0 hPa 0,0 l/m 0,00 h 0,00 h 4 W/m 0,0 km/h (0 Bft) 96,23 %
02.05.2017 02:00 7,3 C 6,7 C 5,6 C 95 % 15 lf 1015,0 hPa 0,0 l/m 0,00 h 0,00 h 0 W/m 0,0 km/h (0 Bft) 96,58 %
02.05.2017 03:00 7,2 C 6,8 C 5,8 C 95 % 15 lf 1015,0 hPa 0,0 l/m 0,00 h 0,00 h 0 W/m 0,6 km/h (0 Bft) 93,16 %
02.05.2017 04:00 7,2 C 6,7 C 5,7 C 96 % 15 lf 1014,8 hPa 0,0 l/m 0,00 h 0,00 h 0 W/m 0,4 km/h (0 Bft) 95,27 %
02.05.2017 05:00 7,0 C 6,7 C 5,8 C 96 % 15 lf 1014,8 hPa 0,0 l/m 0,00 h 0,47 h 4 W/m 0,5 km/h (0 Bft) 96,73 %
02.05.2017 06:00 7,0 C 7,0 C 6,1 C 96 % 15 lf 1014,7 hPa 0,0 l/m 0,00 h 0,33 h 11 W/m 0,8 km/h (0 Bft) 92,46 %
02.05.2017 07:00 7,4 C 7,7 C 6,8 C 97 % 15 lf 1014,8 hPa 0,2 l/m 0,00 h 0,60 h 20 W/m 1,8 km/h (1 Bft) 95,66 %
02.05.2017 08:00 7,9 C 8,0 C 7,1 C 97 % 15 lf 1014,8 hPa 0,2 l/m 0,00 h 0,83 h 16 W/m 4,6 km/h (1 Bft) 96,09 %
02.05.2017 09:00 8,3 C 8,8 C 7,7 C 97 % 15 lf 1014,7 hPa 0,4 l/m 0,00 h 0,93 h 63 W/m 9,0 km/h (2 Bft) 94,87 %
02.05.2017 10:00 9,1 C 9,5 C 8,4 C 98 % 15 lf 1014,8 hPa 0,8 l/m 0,00 h 1,00 h 73 W/m 10,8 km/h (2 Bft) 94,61 %
02.05.2017 11:00 9,8 C 10,8 C 9,5 C 98 % 15 lf 1014,8 hPa 0,2 l/m 0,00 h 1,00 h 141 W/m 10,4 km/h (2 Bft) 95,24 %
02.05.2017 12:00 10,5 C 12,1 C 10,7 C 98 % 15 lf 1014,8 hPa 0,0 l/m 0,03 h 0,57 h 242 W/m 12,6 km/h (3 Bft) 93,17 %
02.05.2017 13:00 11,3 C 13,2 C 11,9 C 97 % 7 lf 1014,7 hPa 0,0 l/m 0,17 h 0,43 h 307 W/m 15,7 km/h (3 Bft) 97,01 %
02.05.2017 14:00 12,4 C 15,5 C 14,0 C 89 % 0 lf 1014,7 hPa 0,0 l/m 0,47 h 0,00 h 432 W/m 17,8 km/h (3 Bft) 91,89 %
02.05.2017 15:00 13,1 C 15,8 C 13,7 C 82 % 4 lf 1014,5 hPa 0,0 l/m 0,17 h 0,43 h 257 W/m 13,7 km/h (3 Bft) 95,59 %
02.05.2017 16:00 13,0 C 13,1 C 11,2 C 84 % 10 lf 1014,5 hPa 0,6 l/m 0,00 h 0,90 h 96 W/m 13,8 km/h (3 Bft) 96,23 %
02.05.2017 17:00 11,4 C 10,5 C 9,3 C 90 % 15 lf 1015,1 hPa 3,0 l/m 0,00 h 0,90 h 40 W/m 4,9 km/h (1 Bft) 95,30 %
02.05.2017 18:00 10,3 C 9,6 C 8,5 C 92 % 15 lf 1015,3 hPa 0,0 l/m 0,00 h 0,07 h 27 W/m 15,7 km/h (3 Bft) 93,32 %
02.05.2017 19:00 9,3 C 9,2 C 8,1 C 92 % 15 lf 1015,5 hPa 0,0 l/m 0,37 h 0,00 h 74 W/m 16,0 km/h (3 Bft) 96,79 %
02.05.2017 20:00 9,1 C 8,4 C 7,3 C 89 % 14 lf 1016,0 hPa 0,0 l/m 0,00 h 0,50 h 22 W/m 11,1 km/h (2 Bft) 95,02 %
02.05.2017 21:00 8,8 C 8,1 C 6,7 C 91 % 15 lf 1016,3 hPa 0,4 l/m 0,00 h 1,00 h 7 W/m 10,3 km/h (2 Bft) 93,60 %
02.05.2017 22:00 8,4 C 7,8 C 6,7 C 94 % 15 lf 1016,5 hPa 2,2 l/m 0,00 h 1,00 h 0 W/m 10,0 km/h (2 Bft) 93,74 %
02.05.2017 23:00 8,1 C 7,8 C 6,7 C 95 % 15 lf 1016,7 hPa 2,0 l/m 0,00 h 1,00 h 0 W/m 9,9 km/h (2 Bft) 96,58 %
03.05.2017 00:00 7,9 C 7,8 C 6,7 C 96 % 15 lf 1016,7 hPa 0,8 l/m 0,00 h 1,00 h 0 W/m 8,1 km/h (2 Bft) 96,31 %
03.05.2017 01:00 7,7 C 7,4 C 6,7 C 97 % 15 lf 1016,6 hPa 0,0 l/m 0,00 h 0,33 h 0 W/m 6,4 km/h (2 Bft) 95,80 %
03.05.2017 02:00 7,6 C 7,2 C 6,7 C 97 % 15 lf 1016,5 hPa 0,2 l/m 0,00 h 0,93 h 0 W/m 6,5 km/h (2 Bft) 96,15 %
03.05.2017 03:00 7,6 C 7,2 C 6,5 C 97 % 15 lf 1016,5 hPa 0,6 l/m 0,00 h 1,00 h 0 W/m 6,4 km/h (2 Bft) 94,02 %
03.05.2017 04:00 7,5 C 7,2 C 6,3 C 98 % 15 lf 1016,5 hPa 1,0 l/m 0,00 h 1,00 h 0 W/m 7,3 km/h (2 Bft) 95,29 %
03.05.2017 05:00 7,5 C 7,3 C 6,7 C 98 % 15 lf 1016,4 hPa 0,4 l/m 0,00 h 1,00 h 7 W/m 1,7 km/h (1 Bft) 95,87 %
03.05.2017 06:00 7,5 C 7,8 C 6,7 C 98 % 15 lf 1016,6 hPa 0,4 l/m 0,00 h 1,00 h 14 W/m 1,3 km/h (1 Bft) 92,53 %
03.05.2017 07:00 7,7 C 7,9 C 7,0 C 98 % 15 lf 1017,0 hPa 0,0 l/m 0,00 h 0,30 h 37 W/m 3,6 km/h (1 Bft) 95,23 %
03.05.2017 08:00 8,2 C 8,7 C 7,9 C 98 % 15 lf 1017,2 hPa 0,0 l/m 0,00 h 0,00 h 91 W/m 5,1 km/h (1 Bft) 96,58 %
03.05.2017 09:00 8,7 C 9,6 C 8,8 C 99 % 15 lf 1017,7 hPa 0,0 l/m 0,00 h 0,00 h 123 W/m 9,0 km/h (2 Bft) 93,65 %
03.05.2017 10:00 9,5 C 13,5 C 12,1 C 99 % 9 lf 1018,1 hPa 0,0 l/m 0,77 h 0,00 h 414 W/m 14,1 km/h (3 Bft) 95,16 %
03.05.2017 11:00 12,3 C 17,5 C 16,7 C 90 % 0 lf 1018,5 hPa 0,0 l/m 0,70 h 0,00 h 596 W/m 17,0 km/h (3 Bft) 96,51 %
03.05.2017 12:00 13,0 C 15,0 C 14,8 C 79 % 0 lf 1018,6 hPa 0,0 l/m 0,10 h 0,00 h 305 W/m 13,8 km/h (3 Bft) 94,11 %
03.05.2017 13:00 13,0 C 14,3 C 13,7 C 79 % 0 lf 1018,6 hPa 0,0 l/m 0,00 h 0,00 h 188 W/m 11,4 km/h (2 Bft) 93,24 %
03.05.2017 14:00 14,3 C 19,4 C 18,5 C 76 % 0 lf 1018,3 hPa 0,0 l/m 0,53 h 0,00 h 538 W/m 15,0 km/h (3 Bft) 96,16 %
03.05.2017 15:00 16,5 C 20,2 C 20,1 C 68 % 0 lf 1018,2 hPa 0,0 l/m 0,97 h 0,00 h 542 W/m 18,8 km/h (3 Bft) 95,17 %
03.05.2017 16:00 16,4 C 19,0 C 17,6 C 68 % 0 lf 1018,0 hPa 0,0 l/m 1,00 h 0,00 h 347 W/m 18,6 km/h (3 Bft) 94,52 %
03.05.2017 17:00 15,7 C 15,8 C 14,8 C 70 % 0 lf 1018,1 hPa 0,0 l/m 0,00 h 0,13 h 136 W/m 27,4 km/h (4 Bft) 94,58 %
03.05.2017 18:00 14,2 C 15,0 C 13,7 C 76 % 0 lf 1018,1 hPa 0,0 l/m 0,23 h 0,07 h 156 W/m 17,4 km/h (3 Bft) 97,08 %
03.05.2017 19:00 13,8 C 13,5 C 11,9 C 74 % 3 lf 1018,2 hPa 0,0 l/m 0,63 h 0,53 h 158 W/m 19,1 km/h (3 Bft) 92,52 %
03.05.2017 20:00 12,8 C 11,5 C 9,9 C 83 % 14 lf 1018,4 hPa 0,0 l/m 0,75 h 0,27 h 98 W/m 8,5 km/h (2 Bft) 95,01 %
03.05.2017 21:00 12,1 C 11,5 C 9,7 C 88 % 4 lf 1018,9 hPa 0,2 l/m 0,00 h 0,58 h 499 W/m 7,7 km/h (2 Bft) 98,54 %
03.05.2017 22:00 11,6 C 10,6 C 9,4 C 92 % 15 lf 1019,2 hPa 3,8 l/m 0,00 h 1,02 h 0 W/m 7,6 km/h (2 Bft) 95,63 %
03.05.2017 23:00 11,0 C 10,2 C 9,3 C 94 % 15 lf 1019,1 hPa 3,8 l/m 0,00 h 1,00 h 5 W/m 2,3 km/h (1 Bft) 93,91 %
04.05.2017 00:00 10,6 C 10,0 C 9,0 C 95 % 15 lf 1018,8 hPa 1,6 l/m 0,00 h 0,67 h 0 W/m 2,8 km/h (1 Bft) 95,39 %
04.05.2017 01:00 10,4 C 10,0 C 8,9 C 96 % 15 lf 1018,4 hPa 0,0 l/m 0,00 h 0,33 h 0 W/m 6,4 km/h (2 Bft) 97,10 %
04.05.2017 02:00 10,1 C 9,9 C 8,8 C 96 % 15 lf 1017,8 hPa 0,0 l/m 0,00 h 0,37 h 0 W/m 9,0 km/h (2 Bft) 97,01 %
04.05.2017 03:00 9,9 C 9,4 C 8,3 C 97 % 15 lf 1017,3 hPa 0,0 l/m 0,00 h 0,73 h 0 W/m 9,4 km/h (2 Bft) 95,84 %
04.05.2017 04:00 9,8 C 9,4 C 8,3 C 97 % 15 lf 1016,9 hPa 0,0 l/m 0,00 h 0,30 h 0 W/m 8,0 km/h (2 Bft) 95,66 %
04.05.2017 05:00 9,7 C 9,4 C 8,3 C 98 % 15 lf 1016,7 hPa 0,0 l/m 0,00 h 0,00 h 3 W/m 8,0 km/h (2 Bft) 97,86 %
04.05.2017 06:00 9,7 C 9,4 C 8,3 C 98 % 15 lf 1016,7 hPa 0,0 l/m 0,00 h 0,03 h 9 W/m 8,7 km/h (2 Bft) 96,02 %
04.05.2017 07:00 9,7 C 9,9 C 8,6 C 98 % 15 lf 1016,6 hPa 0,0 l/m 0,00 h 0,00 h 21 W/m 10,8 km/h (2 Bft) 96,47 %
04.05.2017 08:00 9,7 C 9,8 C 8,8 C 98 % 10 lf 1016,7 hPa 0,0 l/m 0,00 h 0,33 h 33 W/m 13,7 km/h (3 Bft) 95,45 %
04.05.2017 09:00 9,4 C 9,9 C 8,5 C 97 % 11 lf 1016,9 hPa 0,2 l/m 0,00 h 0,30 h 62 W/m 12,8 km/h (3 Bft) 97,29 %
04.05.2017 10:00 10,2 C 13,1 C 11,7 C 96 % 0 lf 1016,9 hPa 0,0 l/m 0,00 h 0,00 h 154 W/m 17,5 km/h (3 Bft) 96,82 %
04.05.2017 11:00 12,4 C 19,5 C 16,2 C 88 % 0 lf 1016,9 hPa 0,0 l/m 0,50 h 0,00 h 475 W/m 19,9 km/h (4 Bft) 95,56 %
04.05.2017 12:00 14,2 C 18,7 C 16,4 C 79 % 0 lf 1016,8 hPa 0,0 l/m 1,00 h 0,00 h 667 W/m 23,3 km/h (4 Bft) 95,24 %
04.05.2017 13:00 14,4 C 17,1 C 16,2 C 76 % 0 lf 1016,9 hPa 0,0 l/m 0,00 h 0,00 h 210 W/m 24,4 km/h (4 Bft) 97,59 %
04.05.2017 14:00 13,7 C 14,9 C 14,3 C 78 % 0 lf 1016,8 hPa 0,0 l/m 0,00 h 0,00 h 115 W/m 21,3 km/h (4 Bft) 95,88 %
04.05.2017 15:00 14,0 C 17,7 C 16,2 C 77 % 0 lf 1016,6 hPa 0,0 l/m 0,07 h 0,00 h 222 W/m 24,4 km/h (4 Bft) 95,48 %
04.05.2017 16:00 14,1 C 15,0 C 14,2 C 76 % 0 lf 1016,7 hPa 0,0 l/m 0,00 h 0,00 h 93 W/m 25,5 km/h (4 Bft) 96,22 %
04.05.2017 17:00 13,4 C 14,2 C 13,3 C 76 % 0 lf 1016,9 hPa 0,0 l/m 0,00 h 0,00 h 77 W/m 22,3 km/h (4 Bft) 98,24 %
04.05.2017 18:00 12,4 C 12,5 C 11,3 C 79 % 0 lf 1017,1 hPa 0,0 l/m 0,00 h 0,00 h 36 W/m 24,6 km/h (4 Bft) 93,09 %
04.05.2017 19:00 11,4 C 11,6 C 10,4 C 82 % 0 lf 1017,7 hPa 0,0 l/m 0,00 h 0,00 h 18 W/m 22,4 km/h (4 Bft) 95,95 %
04.05.2017 20:00 10,9 C 10,9 C 9,6 C 83 % 0 lf 1018,5 hPa 0,0 l/m 0,00 h 0,00 h 59 W/m 19,1 km/h (3 Bft) 96,17 %
04.05.2017 21:00 10,4 C 10,6 C 9,3 C 84 % 0 lf 1018,9 hPa 0,0 l/m 0,00 h 0,00 h 536 W/m 19,4 km/h (3 Bft) 93,09 %
04.05.2017 22:00 10,1 C 10,2 C 8,9 C 85 % 0 lf 1019,1 hPa 0,0 l/m 0,00 h 0,00 h 0 W/m 16,2 km/h (3 Bft) 94,14 %
04.05.2017 23:00 10,1 C 10,0 C 8,9 C 86 % 0 lf 1019,1 hPa 0,0 l/m 0,00 h 0,00 h 0 W/m 14,6 km/h (3 Bft) 97,32 %
05.05.2017 00:00 9,6 C 9,6 C 8,2 C 89 % 4 lf 1019,3 hPa 0,0 l/m 0,00 h 0,00 h 0 W/m 17,6 km/h (3 Bft) 90,60 %
05.05.2017 01:00 8,9 C 8,7 C 7,2 C 94 % 15 lf 1019,2 hPa 0,0 l/m 0,00 h 0,73 h 5 W/m 15,1 km/h (3 Bft) 97,78 %
05.05.2017 02:00 8,2 C 8,1 C 6,8 C 95 % 15 lf 1019,1 hPa 0,2 l/m 0,00 h 0,33 h 4 W/m 18,5 km/h (3 Bft) 96,09 %
05.05.2017 03:00 7,8 C 7,8 C 6,7 C 96 % 15 lf 1019,0 hPa 0,0 l/m 0,00 h 0,00 h 0 W/m 14,1 km/h (3 Bft) 95,82 %
05.05.2017 04:00 7,7 C 7,8 C 6,7 C 97 % 15 lf 1019,0 hPa 0,0 l/m 0,00 h 0,00 h 0 W/m 11,1 km/h (2 Bft) 97,75 %
05.05.2017 05:00 7,7 C 7,8 C 6,7 C 96 % 7 lf 1019,0 hPa 0,0 l/m 0,00 h 0,00 h 9 W/m 12,3 km/h (3 Bft) 96,10 %
05.05.2017 06:00 7,7 C 7,8 C 6,7 C 96 % 14 lf 1019,0 hPa 0,0 l/m 0,00 h 0,00 h 12 W/m 10,8 km/h (2 Bft) 94,85 %
05.05.2017 07:00 7,6 C 7,8 C 6,7 C 97 % 15 lf 1019,2 hPa 0,0 l/m 0,00 h 0,00 h 14 W/m 10,8 km/h (2 Bft) 98,24 %
05.05.2017 08:00 7,7 C 8,1 C 6,8 C 97 % 15 lf 1019,4 hPa 0,0 l/m 0,00 h 0,00 h 23 W/m 8,7 km/h (2 Bft) 96,89 %
05.05.2017 09:00 8,0 C 9,3 C 7,7 C 97 % 9 lf 1019,6 hPa 0,0 l/m 0,00 h 0,00 h 50 W/m 10,3 km/h (2 Bft) 95,15 %
05.05.2017 10:00 8,6 C 11,2 C 9,6 C 97 % 0 lf 1019,5 hPa 0,0 l/m 0,00 h 0,00 h 93 W/m 11,4 km/h (2 Bft) 97,37 %
05.05.2017 11:00 9,5 C 11,8 C 10,5 C 94 % 0 lf 1019,6 hPa 0,0 l/m 0,00 h 0,00 h 91 W/m 9,7 km/h (2 Bft) 96,36 %
05.05.2017 12:00 10,1 C 12,1 C 10,7 C 90 % 0 lf 1019,7 hPa 0,0 l/m 0,00 h 0,00 h 81 W/m 10,0 km/h (2 Bft) 97,07 %
05.05.2017 13:00 10,5 C 12,4 C 11,1 C 88 % 0 lf 1019,4 hPa 0,0 l/m 0,00 h 0,00 h 86 W/m 10,4 km/h (2 Bft) 95,81 %
05.05.2017 14:00 10,8 C 11,8 C 10,4 C 86 % 0 lf 1019,5 hPa 0,0 l/m 0,00 h 0,00 h 54 W/m 13,3 km/h (3 Bft) 96,97 %
05.05.2017 15:00 11,0 C 13,3 C 11,8 C 85 % 0 lf 1019,2 hPa 0,0 l/m 0,00 h 0,00 h 108 W/m 10,3 km/h (2 Bft) 96,93 %
05.05.2017 16:00 12,3 C 15,6 C 14,3 C 81 % 0 lf 1018,6 hPa 0,0 l/m 0,00 h 0,00 h 158 W/m 11,1 km/h (2 Bft) 97,72 %
05.05.2017 17:00 12,8 C 14,3 C 13,1 C 79 % 0 lf 1018,2 hPa 0,0 l/m 0,00 h 0,00 h 86 W/m 12,8 km/h (3 Bft) 94,19 %
05.05.2017 18:00 12,7 C 13,6 C 12,5 C 79 % 0 lf 1017,8 hPa 0,0 l/m 0,00 h 0,00 h 62 W/m 12,5 km/h (3 Bft) 98,40 %
05.05.2017 19:00 12,1 C 12,8 C 11,2 C 81 % 0 lf 1017,5 hPa 0,0 l/m 0,00 h 0,00 h 40 W/m 13,9 km/h (3 Bft) 98,36 %
05.05.2017 20:00 11,5 C 11,0 C 9,6 C 82 % 0 lf 1017,1 hPa 0,0 l/m 0,00 h 0,00 h 24 W/m 13,0 km/h (3 Bft) 93,81 %
05.05.2017 21:00 10,3 C 8,7 C 6,9 C 84 % 0 lf 1017,1 hPa 0,0 l/m 0,00 h 0,00 h 7 W/m 6,1 km/h (2 Bft) 96,79 %
05.05.2017 22:00 9,1 C 7,9 C 6,0 C 88 % 0 lf 1017,0 hPa 0,0 l/m 0,00 h 0,00 h 0 W/m 7,6 km/h (2 Bft) 98,44 %
05.05.2017 23:00 8,4 C 7,8 C 5,9 C 90 % 0 lf 1016,6 hPa 0,0 l/m 0,00 h 0,00 h 5 W/m 8,8 km/h (2 Bft) 93,88 %
06.05.2017 00:00 8,1 C 7,3 C 5,7 C 92 % 1 lf 1016,2 hPa 0,0 l/m 0,00 h 0,00 h 5 W/m 9,0 km/h (2 Bft) 86,79 %
06.05.2017 01:00 7,6 C 7,0 C 5,5 C 93 % 2 lf 1015,5 hPa 0,0 l/m 0,00 h 0,00 h 4 W/m 9,7 km/h (2 Bft) 94,09 %
06.05.2017 02:00 7,2 C 6,4 C 4,8 C 94 % 6 lf 1014,9 hPa 0,0 l/m 0,00 h 0,00 h 5 W/m 7,8 km/h (2 Bft) 95,37 %
06.05.2017 03:00 6,6 C 5,7 C 4,1 C 95 % 14 lf 1014,3 hPa 0,0 l/m 0,00 h 0,00 h 5 W/m 5,9 km/h (2 Bft) 95,73 %
06.05.2017 04:00 6,1 C 4,8 C 3,1 C 95 % 15 lf 1014,1 hPa 0,0 l/m 0,00 h 0,00 h 4 W/m 3,3 km/h (1 Bft) 94,52 %
06.05.2017 05:00 5,3 C 3,7 C 2,5 C 95 % 15 lf 1013,9 hPa 0,0 l/m 0,00 h 0,00 h 4 W/m 0,0 km/h (0 Bft) 93,73 %
06.05.2017 06:00 4,6 C 3,6 C 2,3 C 95 % 15 lf 1013,6 hPa 0,0 l/m 0,77 h 0,00 h 38 W/m 0,0 km/h (0 Bft) 95,73 %
06.05.2017 07:00 5,2 C 5,9 C 4,4 C 96 % 15 lf 1013,1 hPa 0,0 l/m 1,00 h 0,00 h 117 W/m 3,4 km/h (1 Bft) 96,18 %
06.05.2017 08:00 7,7 C 12,3 C 6,8 C 97 % 13 lf 1012,7 hPa 0,0 l/m 1,00 h 0,00 h 204 W/m 7,8 km/h (2 Bft) 94,37 %
06.05.2017 09:00 11,3 C 20,4 C 13,1 C 94 % 0 lf 1012,1 hPa 0,0 l/m 1,00 h 0,00 h 267 W/m 12,9 km/h (3 Bft) 93,20 %
06.05.2017 10:00 15,0 C 23,7 C 21,6 C 79 % 0 lf 1011,4 hPa 0,0 l/m 1,00 h 0,00 h 364 W/m 14,0 km/h (3 Bft) 95,20 %
06.05.2017 11:00 17,5 C 26,5 C 21,9 C 71 % 0 lf 1010,7 hPa 0,0 l/m 1,00 h 0,00 h 419 W/m 15,0 km/h (3 Bft) 95,08 %
06.05.2017 12:00 18,7 C 25,9 C 21,8 C 66 % 0 lf 1009,9 hPa 0,0 l/m 1,00 h 0,00 h 482 W/m 16,5 km/h (3 Bft) 94,24 %
06.05.2017 13:00 20,8 C 27,7 C 21,4 C 56 % 0 lf 1008,9 hPa 0,0 l/m 1,00 h 0,00 h 543 W/m 20,3 km/h (4 Bft) 95,44 %
06.05.2017 14:00 21,7 C 28,7 C 27,3 C 52 % 0 lf 1008,3 hPa 0,0 l/m 0,90 h 0,00 h 473 W/m 20,4 km/h (4 Bft) 96,16 %
06.05.2017 15:00 22,0 C 28,0 C 28,2 C 50 % 0 lf 1007,8 hPa 0,0 l/m 0,77 h 0,00 h 421 W/m 20,1 km/h (4 Bft) 92,74 %
06.05.2017 16:00 22,0 C 26,5 C 23,1 C 54 % 0 lf 1007,6 hPa 0,0 l/m 0,53 h 0,00 h 295 W/m 19,9 km/h (4 Bft) 94,17 %
06.05.2017 17:00 21,6 C 25,6 C 20,4 C 56 % 0 lf 1007,5 hPa 0,0 l/m 1,00 h 0,00 h 329 W/m 21,4 km/h (4 Bft) 95,64 %
06.05.2017 18:00 20,6 C 21,2 C 18,5 C 58 % 0 lf 1007,6 hPa 0,0 l/m 0,27 h 0,00 h 156 W/m 18,4 km/h (3 Bft) 94,80 %
06.05.2017 19:00 19,4 C 19,6 C 17,4 C 62 % 0 lf 1007,7 hPa 0,0 l/m 0,00 h 0,00 h 81 W/m 18,4 km/h (3 Bft) 93,24 %
06.05.2017 20:00 18,3 C 17,8 C 15,8 C 64 % 0 lf 1007,8 hPa 0,0 l/m 0,00 h 0,00 h 27 W/m 14,8 km/h (3 Bft) 96,44 %
06.05.2017 21:00 17,0 C 15,9 C 13,7 C 67 % 0 lf 1008,2 hPa 0,0 l/m 0,00 h 0,00 h 0 W/m 11,0 km/h (2 Bft) 95,95 %
06.05.2017 22:00 15,9 C 14,4 C 11,9 C 70 % 0 lf 1008,5 hPa 0,0 l/m 0,00 h 0,00 h 0 W/m 7,5 km/h (2 Bft) 92,66 %
06.05.2017 23:00 14,2 C 11,9 C 9,3 C 75 % 0 lf 1008,7 hPa 0,0 l/m 0,00 h 0,00 h 0 W/m 4,3 km/h (1 Bft) 96,37 %
07.05.2017 00:00 12,6 C 11,3 C 9,1 C 81 % 0 lf 1009,2 hPa 0,0 l/m 0,00 h 0,00 h 0 W/m 6,9 km/h (2 Bft) 97,36 %
07.05.2017 01:00 11,8 C 10,8 C 9,0 C 84 % 0 lf 1009,4 hPa 0,0 l/m 0,00 h 0,00 h 0 W/m 5,3 km/h (1 Bft) 94,74 %
07.05.2017 02:00 11,3 C 10,4 C 8,5 C 86 % 0 lf 1009,7 hPa 0,0 l/m 0,00 h 0,00 h 0 W/m 5,5 km/h (1 Bft) 96,87 %
07.05.2017 03:00 11,0 C 10,3 C 8,9 C 90 % 0 lf 1009,9 hPa 0,0 l/m 0,00 h 0,00 h 0 W/m 7,5 km/h (2 Bft) 95,74 %
07.05.2017 04:00 10,5 C 9,6 C 8,2 C 92 % 1 lf 1010,2 hPa 0,0 l/m 0,00 h 0,00 h 0 W/m 7,4 km/h (2 Bft) 97,72 %
07.05.2017 05:00 9,7 C 8,6 C 7,4 C 93 % 2 lf 1010,4 hPa 0,0 l/m 0,00 h 0,00 h 0 W/m 6,7 km/h (2 Bft) 98,08 %
07.05.2017 06:00 9,2 C 9,0 C 7,5 C 93 % 2 lf 1010,7 hPa 0,0 l/m 0,00 h 0,00 h 18 W/m 2,6 km/h (1 Bft) 94,37 %
07.05.2017 07:00 9,7 C 11,8 C 10,0 C 95 % 0 lf 1011,4 hPa 0,0 l/m 0,00 h 0,00 h 63 W/m 6,9 km/h (2 Bft) 96,02 %
07.05.2017 08:00 10,6 C 12,6 C 11,3 C 96 % 0 lf 1012,0 hPa 0,0 l/m 0,00 h 0,00 h 63 W/m 9,9 km/h (2 Bft) 98,36 %
07.05.2017 09:00 11,1 C 13,0 C 12,0 C 95 % 0 lf 1012,7 hPa 0,0 l/m 0,00 h 0,00 h 75 W/m 12,8 km/h (3 Bft) 95,23 %
07.05.2017 10:00 12,0 C 14,9 C 13,8 C 94 % 0 lf 1013,4 hPa 0,0 l/m 0,00 h 0,00 h 121 W/m 13,5 km/h (3 Bft) 96,44 %
07.05.2017 11:00 13,5 C 19,6 C 16,9 C 91 % 0 lf 1013,8 hPa 0,0 l/m 0,03 h 0,00 h 232 W/m 16,8 km/h (3 Bft) 97,65 %
07.05.2017 12:00 15,9 C 22,4 C 19,3 C 83 % 0 lf 1014,1 hPa 0,0 l/m 0,10 h 0,00 h 297 W/m 19,0 km/h (3 Bft) 95,73 %
07.05.2017 13:00 16,9 C 21,0 C 18,8 C 77 % 0 lf 1014,1 hPa 0,0 l/m 0,10 h 0,00 h 221 W/m 20,0 km/h (4 Bft) 95,44 %
07.05.2017 14:00 17,6 C 22,0 C 20,3 C 74 % 0 lf 1014,2 hPa 0,0 l/m 0,03 h 0,00 h 242 W/m 18,2 km/h (3 Bft) 98,50 %
07.05.2017 15:00 18,1 C 21,3 C 19,6 C 71 % 0 lf 1014,3 hPa 0,0 l/m 0,03 h 0,00 h 158 W/m 18,8 km/h (3 Bft) 94,83 %
07.05.2017 16:00 16,5 C 17,2 C 16,0 C 74 % 0 lf 1014,4 hPa 0,0 l/m 0,00 h 0,00 h 60 W/m 16,6 km/h (3 Bft) 96,38 %
07.05.2017 17:00 16,4 C 17,9 C 16,8 C 75 % 0 lf 1014,6 hPa 0,0 l/m 0,00 h 0,00 h 88 W/m 18,1 km/h (3 Bft) 96,01 %
07.05.2017 18:00 15,9 C 16,7 C 15,2 C 77 % 0 lf 1014,8 hPa 0,0 l/m 0,00 h 0,00 h 44 W/m 13,0 km/h (3 Bft) 97,09 %
07.05.2017 19:00 15,6 C 15,8 C 14,5 C 78 % 0 lf 1015,1 hPa 0,0 l/m 0,00 h 0,00 h 27 W/m 17,1 km/h (3 Bft) 96,58 %
07.05.2017 20:00 14,4 C 13,9 C 12,6 C 81 % 1 lf 1015,5 hPa 0,0 l/m 0,00 h 0,13 h 5 W/m 19,6 km/h (3 Bft) 96,30 %
07.05.2017 21:00 13,3 C 13,0 C 11,8 C 83 % 0 lf 1016,0 hPa 0,0 l/m 0,00 h 0,00 h 0 W/m 18,6 km/h (3 Bft) 96,06 %
07.05.2017 22:00 12,5 C 12,2 C 10,8 C 84 % 0 lf 1016,7 hPa 0,0 l/m 0,00 h 0,00 h 0 W/m 18,5 km/h (3 Bft) 98,65 %
07.05.2017 23:00 11,2 C 10,7 C 9,4 C 84 % 0 lf 1017,0 hPa 0,0 l/m 0,00 h 0,00 h 5 W/m 20,0 km/h (4 Bft) 94,65 %
Min-Datum _ 06.05.17 06.05.17 06.05.17 06.05.17 01.05.17 01.05.17 - - - - 01.05.17 06.05.17
_ Min-Zeit 06:50 05:34 05:32 15:18 00:00 02:08 - - - - 22:34 00:04
Minimum _ 4,4 C 3,3 C 2,2 C 48 % 0 lf 1003,6 hPa - - - - 0,0 km/h (0 Bft) 9,09 %
Max-Datum _ 06.05.17 06.05.17 06.05.17 02.05.17 01.05.17 05.05.17 03.05.17 03.05.17 03.05.17 02.05.17 03.05.17 01.05.17
_ Max-Zeit 16:04 14:12 15:30 12:00 07:06 11:58 23:02 20:35 04:05 14:26 17:38 00:06
Maximum _ 22,5 C 32,2 C 31,1 C 99 % 15 lf 1019,8 hPa 3,8 l/m 0,08 h 0,08 h 1079 W/m 43,9 km/h
O (6 Bft)
100,00 %
Durchschnitt _ 11,4 C 12,2 C 10,7 C 86 % 6 lf 1014,6 hPa #28,2 l/m #20:33 h #38:28 h 139 W/m 11,9 km/h (2 Bft) 95,69 %
© 2017 W. Hausmann